»·PEaware :: N313AC KBFL-KMHV

N313AC :: KBFL-KMHV

FLIGHT INFORMATION

Flight Status: Arrived
Operator: Privately registered:
United States
More flights under this callsign
Pilot: Larry E. (16287)
Aircraft: PIPER PA-28 CHEROKEE ARCHER
(PA28)
More flights by this aircraft type
Origin: KBFL Meadows
United States
Destination: KMHV Mojave
United States
More flights between these airports :: More routes between these airports
Route: +
File this flight plan on PilotEdge
Remarks: cat6
Altitude:
(Current/Filed)
7,500ft
Speed:
(Current/Filed)
100kts
Departed: 28-Dec-17 08:54 AM
Arrived: 28-Dec-17 09:32 AM
Distance/Time
Traveled:
50nm/0:38
Distance/Time
To Go:
Arrived

Flight Plot

Page will automatically refresh every two minutes.


Map Options




Map Legend


Flown Route
Filed Route
Departure Airport
Arrival Airport
Navaid (VOR, NDB)
Fix

Horizontal Profiles

Position Reports

Time Latitude Longitude Heading Altitude Ground
Speed
28-Dec-17 08:35 35.435705 -119.052043 179 500ft 0kts
28-Dec-17 08:36 35.435705 -119.052043 179 500ft 0kts
28-Dec-17 08:37 35.435705 -119.052043 179 500ft 0kts
28-Dec-17 08:38 35.435705 -119.052043 179 500ft 0kts
28-Dec-17 08:39 35.435705 -119.052043 179 500ft 0kts
28-Dec-17 08:48 35.435705 -119.052043 179 500ft 0kts
28-Dec-17 08:49 35.435705 -119.052043 179 500ft 0kts
28-Dec-17 08:50 35.435705 -119.052043 179 500ft 0kts
28-Dec-17 08:51 35.435705 -119.052043 179 500ft 0kts
28-Dec-17 08:52 35.435694 -119.052044 179 500ft 2kts
28-Dec-17 08:53 35.433601 -119.054050 77 500ft 13kts
28-Dec-17 08:54 35.430422 -119.049848 134 500ft 23kts
28-Dec-17 08:55 35.426938 -119.045605 134 500ft 29kts
28-Dec-17 08:56 35.425511 -119.044573 338 500ft 0kts
28-Dec-17 08:57 35.425511 -119.044573 338 500ft 0kts
28-Dec-17 08:58 35.425566 -119.044803 258 500ft 0kts
28-Dec-17 08:59 35.426104 -119.046833 315 500ft 40kts
28-Dec-17 09:00 35.444039 -119.060312 64 1270ft 89kts
28-Dec-17 09:01 35.435532 -119.030700 127 2088ft 107kts
28-Dec-17 09:02 35.416215 -119.002152 128 2766ft 120kts
28-Dec-17 09:03 35.397150 -118.969318 120 3439ft 121kts
28-Dec-17 09:04 35.379278 -118.934818 121 4123ft 120kts
28-Dec-17 09:05 35.362333 -118.902525 121 4772ft 118kts
28-Dec-17 09:06 35.362333 -118.902525 121 4772ft 118kts
28-Dec-17 09:11 35.298006 -118.737837 112 7495ft 118kts
28-Dec-17 09:12 35.289745 -118.714388 112 7493ft 132kts
28-Dec-17 09:13 35.283242 -118.695821 112 7495ft 134kts
28-Dec-17 09:14 35.277964 -118.680765 113 7498ft 134kts
28-Dec-17 09:15 35.273266 -118.667294 112 7500ft 134kts
28-Dec-17 09:16 35.269198 -118.655578 112 7503ft 134kts
28-Dec-17 09:17 35.265494 -118.644805 113 7515ft 134kts
28-Dec-17 09:18 35.254145 -118.614330 114 7522ft 134kts
28-Dec-17 09:19 35.249599 -118.602206 115 7524ft 134kts
28-Dec-17 09:20 35.238736 -118.574110 115 7528ft 133kts
28-Dec-17 09:21 35.230341 -118.552182 115 7530ft 133kts
28-Dec-17 09:22 35.226492 -118.542456 116 7531ft 133kts
28-Dec-17 09:23 35.214886 -118.515577 118 7531ft 133kts
28-Dec-17 09:24 35.196317 -118.476322 120 7531ft 133kts
28-Dec-17 09:25 35.177742 -118.436961 119 7531ft 133kts
28-Dec-17 09:26 35.161518 -118.401400 119 7531ft 133kts
28-Dec-17 09:27 35.149259 -118.372922 117 7531ft 133kts
28-Dec-17 09:28 35.140678 -118.352385 117 7527ft 124kts
28-Dec-17 09:29 35.134951 -118.338659 118 7527ft 107kts
28-Dec-17 09:30 35.127800 -118.321561 112 7325ft 110kts
28-Dec-17 09:31 35.118011 -118.286701 111 6537ft 149kts
28-Dec-17 09:32 35.101956 -118.238979 112 5722ft 154kts
28-Dec-17 09:33 35.086433 -118.189510 109 4269ft 149kts
28-Dec-17 09:34 35.069969 -118.146943 88 3338ft 122kts
28-Dec-17 09:35 35.062565 -118.118915 181 3834ft 79kts
28-Dec-17 09:36 35.059125 -118.139678 270 2888ft 75kts
28-Dec-17 09:37 35.059152 -118.146366 272 2769ft 49kts
28-Dec-17 09:38 35.058328 -118.149815 147 2769ft 22kts
28-Dec-17 09:39 35.056970 -118.152201 325 2769ft 0kts

Navigation Log

Ident Type
1. KBFL Airport
2. KMHV Airport